sensor_id;sensor_type;location;lat;lon;timestamp;temperature;humidity
49717;DHT22;35609;53.166;7.610;2022-07-29T11:40:15;25.80;94.10
49717;DHT22;35609;53.166;7.610;2022-07-29T11:42:42;25.40;94.10
49717;DHT22;35609;53.166;7.610;2022-07-29T11:45:18;25.40;94.80
49717;DHT22;35609;53.166;7.610;2022-07-29T11:47:48;25.30;93.80
49717;DHT22;35609;53.166;7.610;2022-07-29T11:50:17;25.30;94.30
49717;DHT22;35609;53.166;7.610;2022-07-29T11:52:46;25.00;93.80
49717;DHT22;35609;53.166;7.610;2022-07-29T11:55:17;25.10;94.20
49717;DHT22;35609;53.166;7.610;2022-07-29T11:58:02;25.20;95.10
49717;DHT22;35609;53.166;7.610;2022-07-29T12:03:04;25.30;95.30
49717;DHT22;35609;53.166;7.610;2022-07-29T12:05:36;25.20;93.60
49717;DHT22;35609;53.166;7.610;2022-07-29T12:08:10;25.30;94.80
49717;DHT22;35609;53.166;7.610;2022-07-29T12:10:37;25.30;94.60
49717;DHT22;35609;53.166;7.610;2022-07-29T12:13:03;25.60;95.30
49717;DHT22;35609;53.166;7.610;2022-07-29T12:15:29;25.60;94.80
49717;DHT22;35609;53.166;7.610;2022-07-29T12:17:55;25.70;95.60
49717;DHT22;35609;53.166;7.610;2022-07-29T12:20:28;25.80;94.60
49717;DHT22;35609;53.166;7.610;2022-07-29T12:22:55;25.90;94.10
49717;DHT22;35609;53.166;7.610;2022-07-29T12:25:23;25.70;93.50
49717;DHT22;35609;53.166;7.610;2022-07-29T12:27:59;25.60;93.80
49717;DHT22;35609;53.166;7.610;2022-07-29T12:30:41;25.60;94.10
49717;DHT22;35609;53.166;7.610;2022-07-29T12:35:41;25.70;94.90
49717;DHT22;35609;53.166;7.610;2022-07-29T12:38:10;25.60;95.00
49717;DHT22;35609;53.166;7.610;2022-07-29T12:40:36;25.30;93.40
49717;DHT22;35609;53.166;7.610;2022-07-29T12:43:16;25.30;94.70
49717;DHT22;35609;53.166;7.610;2022-07-29T12:45:44;25.20;94.50
49717;DHT22;35609;53.166;7.610;2022-07-29T12:48:11;25.00;94.40
49717;DHT22;35609;53.166;7.610;2022-07-29T12:50:52;24.90;94.60
49717;DHT22;35609;53.166;7.610;2022-07-29T12:53:18;24.70;95.60
49717;DHT22;35609;53.166;7.610;2022-07-29T12:55:46;24.50;94.30
49717;DHT22;35609;53.166;7.610;2022-07-29T12:58:49;24.40;93.50
49717;DHT22;35609;53.166;7.610;2022-07-29T13:01:16;24.30;93.90
49717;DHT22;35609;53.166;7.610;2022-07-29T13:06:35;24.00;95.00
49717;DHT22;35609;53.166;7.610;2022-07-29T13:11:37;23.90;95.50
49717;DHT22;35609;53.166;7.610;2022-07-29T13:14:04;23.90;96.60
49717;DHT22;35609;53.166;7.610;2022-07-29T13:16:30;23.90;96.00
49717;DHT22;35609;53.166;7.610;2022-07-29T13:19:07;23.90;96.90
49717;DHT22;35609;53.166;7.610;2022-07-29T13:21:34;23.80;97.50
49717;DHT22;35609;53.166;7.610;2022-07-29T13:24:00;23.90;96.80
49717;DHT22;35609;53.166;7.610;2022-07-29T13:26:26;23.70;97.30
49717;DHT22;35609;53.166;7.610;2022-07-29T13:28:53;23.60;97.70
49717;DHT22;35609;53.166;7.610;2022-07-29T13:31:20;23.60;97.60
49717;DHT22;35609;53.166;7.610;2022-07-29T13:33:47;23.50;97.50
49717;DHT22;35609;53.166;7.610;2022-07-29T13:36:13;23.50;97.40
49717;DHT22;35609;53.166;7.610;2022-07-29T13:38:39;23.50;97.60
49717;DHT22;35609;53.166;7.610;2022-07-29T13:41:05;23.40;97.60
49717;DHT22;35609;53.166;7.610;2022-07-29T13:43:30;23.30;97.80
49717;DHT22;35609;53.166;7.610;2022-07-29T13:45:56;23.20;98.10
49717;DHT22;35609;53.166;7.610;2022-07-29T13:48:22;23.10;98.50
49717;DHT22;35609;53.166;7.610;2022-07-29T13:50:47;22.90;97.90
49717;DHT22;35609;53.166;7.610;2022-07-29T13:53:13;22.80;98.90
49717;DHT22;35609;53.166;7.610;2022-07-29T13:55:39;22.80;99.60
49717;DHT22;35609;53.166;7.610;2022-07-29T13:58:05;22.80;99.90
49717;DHT22;35609;53.166;7.610;2022-07-29T14:00:30;22.70;99.40
49717;DHT22;35609;53.166;7.610;2022-07-29T14:02:56;22.70;99.90
49717;DHT22;35609;53.166;7.610;2022-07-29T14:05:22;22.80;99.90
49717;DHT22;35609;53.166;7.610;2022-07-29T14:07:48;22.70;99.90
49717;DHT22;35609;53.166;7.610;2022-07-29T14:10:14;22.70;99.90
49717;DHT22;35609;53.166;7.610;2022-07-29T14:12:39;22.60;99.90
49717;DHT22;35609;53.166;7.610;2022-07-29T14:15:07;22.60;99.90
49717;DHT22;35609;53.166;7.610;2022-07-29T14:17:33;22.60;99.90
49717;DHT22;35609;53.166;7.610;2022-07-29T14:19:59;22.50;99.90
49717;DHT22;35609;53.166;7.610;2022-07-29T14:22:25;22.40;99.90
